createdAt,value
2022-12-11T00:02:35.000Z,24.63
2022-12-11T00:07:35.000Z,21.79
2022-12-11T00:12:35.000Z,22.6
2022-12-11T00:17:34.000Z,24.15
2022-12-11T00:22:35.000Z,25.62
2022-12-11T00:27:35.000Z,21.79
2022-12-11T00:32:38.000Z,21.02
2022-12-11T00:42:35.000Z,18.23
2022-12-11T00:47:34.000Z,18.23
2022-12-11T00:52:35.000Z,19.69
2022-12-11T00:57:35.000Z,15.15
2022-12-11T01:02:35.000Z,17.16
2022-12-11T01:07:35.000Z,18.54
2022-12-11T01:12:34.000Z,19.11
2022-12-11T01:22:35.000Z,21.06
2022-12-11T01:27:34.000Z,18.07
2022-12-11T01:32:35.000Z,16.95
2022-12-11T01:37:35.000Z,16.95
2022-12-11T01:42:35.000Z,16.7
2022-12-11T01:47:35.000Z,17.92
2022-12-11T01:52:35.000Z,18.02
2022-12-11T01:57:34.000Z,18.5
2022-12-11T02:02:34.000Z,17.45
2022-12-11T02:07:35.000Z,18.27
2022-12-11T02:17:35.000Z,17.38
2022-12-11T02:22:35.000Z,18.46
2022-12-11T02:27:35.000Z,21.33
2022-12-11T02:32:35.000Z,21.33
2022-12-11T02:37:34.000Z,21.51
2022-12-11T02:42:35.000Z,20.47
2022-12-11T02:47:35.000Z,20.81
2022-12-11T02:52:34.000Z,21.84
2022-12-11T03:02:35.000Z,16.66
2022-12-11T03:07:35.000Z,15.68
2022-12-11T03:12:34.000Z,15.59
2022-12-11T03:17:35.000Z,14.08
2022-12-11T03:22:35.000Z,16.19
2022-12-11T03:27:34.000Z,16.19
2022-12-11T03:32:35.000Z,12.6
2022-12-11T03:37:34.000Z,14.29
2022-12-11T03:42:34.000Z,13.01
2022-12-11T03:47:35.000Z,12.75
2022-12-11T03:52:35.000Z,12
2022-12-11T03:57:35.000Z,10.28
2022-12-11T04:02:35.000Z,12.71
2022-12-11T04:07:35.000Z,12.01
2022-12-11T04:12:35.000Z,12.02
2022-12-11T04:17:35.000Z,11.11
2022-12-11T04:22:35.000Z,11.45
2022-12-11T04:27:35.000Z,12.15
2022-12-11T04:32:34.000Z,12.45
2022-12-11T04:42:34.000Z,13.6
2022-12-11T04:47:35.000Z,14.52
2022-12-11T04:52:35.000Z,14.02
2022-12-11T04:57:35.000Z,13.47
2022-12-11T05:02:35.000Z,12.73
2022-12-11T05:07:34.000Z,11.6
2022-12-11T05:12:35.000Z,12.63
2022-12-11T05:17:35.000Z,11.73
2022-12-11T05:27:34.000Z,13.48
2022-12-11T05:32:34.000Z,12.14
2022-12-11T05:37:34.000Z,12.38
2022-12-11T05:42:39.000Z,13.76
2022-12-11T05:47:35.000Z,13.44
2022-12-11T05:52:34.000Z,14.7
2022-12-11T05:57:35.000Z,13.04
2022-12-11T06:02:35.000Z,13.04
2022-12-11T06:07:34.000Z,14.78
2022-12-11T06:12:35.000Z,13.56
2022-12-11T06:17:34.000Z,14.67
2022-12-11T06:22:35.000Z,12.22
2022-12-11T06:27:34.000Z,12.53
2022-12-11T06:32:35.000Z,13.4
2022-12-11T06:37:35.000Z,12.03
2022-12-11T06:42:34.000Z,13.6
2022-12-11T06:52:35.000Z,16.2
2022-12-11T06:57:34.000Z,15.69
2022-12-11T07:02:35.000Z,17.13
2022-12-11T07:07:34.000Z,18.39
2022-12-11T07:12:35.000Z,18.67
2022-12-11T07:17:34.000Z,20.45
2022-12-11T07:22:35.000Z,21.07
2022-12-11T07:27:34.000Z,23.72
2022-12-11T07:32:34.000Z,23.06
2022-12-11T07:37:34.000Z,23.06
2022-12-11T07:42:34.000Z,21.65
2022-12-11T07:52:34.000Z,20.13
2022-12-11T07:57:35.000Z,19.34
2022-12-11T08:02:34.000Z,18.72
2022-12-11T08:07:34.000Z,18.53
2022-12-11T08:12:35.000Z,17.85
2022-12-11T08:17:41.000Z,18.17
2022-12-11T08:22:35.000Z,20.51
2022-12-11T08:27:34.000Z,18.25
2022-12-11T08:32:35.000Z,16.53
2022-12-11T08:37:34.000Z,19.02
2022-12-11T08:42:35.000Z,19.21
2022-12-11T08:47:34.000Z,19.21
2022-12-11T08:52:34.000Z,19.03
2022-12-11T08:57:35.000Z,19.69
2022-12-11T09:02:35.000Z,18.69
2022-12-11T09:07:34.000Z,19.32
2022-12-11T09:12:35.000Z,19.97
2022-12-11T09:17:35.000Z,19.27
2022-12-11T09:22:35.000Z,19.92
2022-12-11T09:27:34.000Z,20.48
2022-12-11T09:37:34.000Z,22.29
2022-12-11T09:42:34.000Z,22.71
2022-12-11T09:47:34.000Z,22.28
2022-12-11T09:52:35.000Z,22.28
2022-12-11T09:57:34.000Z,21.71
2022-12-11T10:02:35.000Z,20.71
2022-12-11T10:07:35.000Z,19.58
2022-12-11T10:12:34.000Z,21.52
2022-12-11T10:17:35.000Z,24.5
2022-12-11T10:22:34.000Z,23.41
2022-12-11T10:27:35.000Z,21.36
2022-12-11T10:32:34.000Z,19.96
2022-12-11T10:37:35.000Z,19.28
2022-12-11T10:42:34.000Z,19.84
2022-12-11T10:47:34.000Z,20.45
2022-12-11T10:52:35.000Z,19.4
2022-12-11T10:57:34.000Z,20.57
2022-12-11T11:02:35.000Z,22.88
2022-12-11T11:07:34.000Z,22.88
2022-12-11T11:12:35.000Z,20.48
2022-12-11T11:17:40.000Z,21.2
2022-12-11T11:22:35.000Z,29.14
2022-12-11T11:27:34.000Z,29.45
2022-12-11T11:32:35.000Z,36.01
2022-12-11T11:37:35.000Z,32.71
2022-12-11T11:42:34.000Z,27.37
2022-12-11T11:47:35.000Z,23.26
2022-12-11T11:52:35.000Z,25.09
2022-12-11T11:57:35.000Z,24.62
2022-12-11T12:02:35.000Z,31.56
2022-12-11T12:07:34.000Z,40.78
2022-12-11T12:12:42.000Z,28.9
2022-12-11T12:17:35.000Z,24.32
2022-12-11T12:22:35.000Z,24.32
2022-12-11T12:28:01.000Z,23.86
2022-12-11T12:32:35.000Z,26.29
2022-12-11T12:37:34.000Z,25.69
2022-12-11T12:42:34.000Z,25.17
2022-12-11T12:47:35.000Z,21.93
2022-12-11T12:52:34.000Z,19.47
2022-12-11T12:57:35.000Z,20.82
2022-12-11T13:02:34.000Z,19.33
2022-12-11T13:07:35.000Z,20.12
2022-12-11T13:12:35.000Z,23.42
2022-12-11T13:17:34.000Z,20.99
2022-12-11T13:22:35.000Z,23
2022-12-11T13:27:34.000Z,23
2022-12-11T13:32:35.000Z,23.26
2022-12-11T13:37:35.000Z,22.18
2022-12-11T13:42:34.000Z,22.33
2022-12-11T13:47:34.000Z,23.65
2022-12-11T13:52:34.000Z,28.65
2022-12-11T13:57:35.000Z,25.38
2022-12-11T14:02:34.000Z,21.73
2022-12-11T14:07:35.000Z,21.41
2022-12-11T14:12:34.000Z,20.99
2022-12-11T14:17:35.000Z,21.35
2022-12-11T14:22:34.000Z,22.43
2022-12-11T14:32:35.000Z,22.31
2022-12-11T14:37:35.000Z,21.88
2022-12-11T14:42:34.000Z,18.55
2022-12-11T14:47:35.000Z,18.07
2022-12-11T14:52:35.000Z,16.84
2022-12-11T14:57:34.000Z,16.42
2022-12-11T15:02:35.000Z,16.23
2022-12-11T15:07:34.000Z,16.27
2022-12-11T15:12:35.000Z,14.52
2022-12-11T15:17:34.000Z,14.43
2022-12-11T15:22:35.000Z,15.46
2022-12-11T15:27:34.000Z,15.11
2022-12-11T15:32:35.000Z,15.81
2022-12-11T15:37:34.000Z,15.81
2022-12-11T15:42:35.000Z,17.32
2022-12-11T15:47:34.000Z,17.02
2022-12-11T15:52:35.000Z,16.93
2022-12-11T15:57:34.000Z,14.94
2022-12-11T16:02:35.000Z,14.24
2022-12-11T16:07:34.000Z,13.22
2022-12-11T16:12:34.000Z,12.96
2022-12-11T16:17:35.000Z,12.71
2022-12-11T16:22:34.000Z,12.71
2022-12-11T16:27:35.000Z,13.65
2022-12-11T16:32:35.000Z,12.34
2022-12-11T16:37:34.000Z,14.08
2022-12-11T16:42:35.000Z,14.32
2022-12-11T16:47:34.000Z,15.12
2022-12-11T16:52:35.000Z,15.12
2022-12-11T16:57:34.000Z,13.27
2022-12-11T17:02:35.000Z,10.85
2022-12-11T17:07:35.000Z,13.64
2022-12-11T17:12:34.000Z,13.13
2022-12-11T17:17:34.000Z,10.03
2022-12-11T17:22:35.000Z,10.65
2022-12-11T17:27:35.000Z,10.65
2022-12-11T17:32:35.000Z,10.23
2022-12-11T17:37:35.000Z,9.39
2022-12-11T17:42:35.000Z,8.07
2022-12-11T17:47:35.000Z,9.35
2022-12-11T17:52:40.000Z,9.46
2022-12-11T17:57:35.000Z,9.11
2022-12-11T18:02:34.000Z,10.18
2022-12-11T18:07:35.000Z,10.18
2022-12-11T18:12:34.000Z,11.71
2022-12-11T18:17:35.000Z,14.15
2022-12-11T18:22:35.000Z,15.03
2022-12-11T18:27:34.000Z,11.32
2022-12-11T18:32:35.000Z,9.14
2022-12-11T18:37:38.000Z,6.78
2022-12-11T18:42:43.000Z,7.47
2022-12-11T18:47:35.000Z,9.2
2022-12-11T18:52:35.000Z,8.59
2022-12-11T18:57:35.000Z,6.84
2022-12-11T19:02:35.000Z,6.69
2022-12-11T19:07:35.000Z,5.77
2022-12-11T19:12:34.000Z,5.41
2022-12-11T19:17:34.000Z,6.37
2022-12-11T19:22:34.000Z,6.37
2022-12-11T19:27:35.000Z,7.38
2022-12-11T19:42:35.000Z,7.61
2022-12-11T19:47:35.000Z,9.88
2022-12-11T19:52:35.000Z,8.99
2022-12-11T19:57:35.000Z,8.17
2022-12-11T20:02:34.000Z,8.41
2022-12-11T20:07:40.000Z,7.11
2022-12-11T20:12:34.000Z,10.05
2022-12-11T20:17:34.000Z,8.99
2022-12-11T20:22:35.000Z,9.01
2022-12-11T20:27:35.000Z,7.69
2022-12-11T20:32:35.000Z,5.98
2022-12-11T20:37:34.000Z,7.88
2022-12-11T20:42:35.000Z,9.46
2022-12-11T20:47:35.000Z,9.88
2022-12-11T20:52:35.000Z,9.88
2022-12-11T20:57:35.000Z,8.18
2022-12-11T21:02:35.000Z,7.8
2022-12-11T21:07:34.000Z,8.11
2022-12-11T21:12:41.000Z,7.12
2022-12-11T21:17:35.000Z,8.83
2022-12-11T21:22:35.000Z,10.43
2022-12-11T21:27:35.000Z,10.06
2022-12-11T21:32:34.000Z,10.1
2022-12-11T21:37:35.000Z,12.06
2022-12-11T21:42:34.000Z,15.8
2022-12-11T21:47:34.000Z,19.57
2022-12-11T21:52:35.000Z,22.7
2022-12-11T21:57:37.000Z,25.79
2022-12-11T22:02:35.000Z,25.79
2022-12-11T22:07:34.000Z,26.51
2022-12-11T22:12:34.000Z,27.66
2022-12-11T22:22:34.000Z,24.31
2022-12-11T22:27:35.000Z,24.1
2022-12-11T22:32:34.000Z,24.63
2022-12-11T22:37:35.000Z,25.44
2022-12-11T22:42:35.000Z,26.6
2022-12-11T22:47:35.000Z,27.8
2022-12-11T22:52:35.000Z,27.8
2022-12-11T22:57:35.000Z,26.49
2022-12-11T23:02:34.000Z,26.94
2022-12-11T23:07:35.000Z,27.89
2022-12-11T23:12:34.000Z,27.03
2022-12-11T23:17:34.000Z,26.39
2022-12-11T23:22:35.000Z,28.03
2022-12-11T23:27:34.000Z,27.54
2022-12-11T23:32:34.000Z,28.17
2022-12-11T23:37:35.000Z,27.31
2022-12-11T23:42:34.000Z,27.43
2022-12-11T23:47:35.000Z,27.59
2022-12-11T23:52:34.000Z,26.37
2022-12-11T23:57:35.000Z,24.77
